KMKT/MKT METAR and TAF weather

Enter ICAO airport designator
Station Type Date Time Source
KMKT METAR 2021/07/29 00:56 UTC NOAA

KMKT 290056Z AUTO 21009KT 10SM CLR 31/25 A2986 RMK AO2 SLP104 T03060250


Station Type Date Time Source
KMKT Decoded METAR 2021/07/29 00:56 UTC NOAA

Mankato, Mankato Regional Airport, MN, United States (KMKT) 44-13N 093-55W
Jul 28, 2021 - 08:56 PM EDT / 2021.07.29 0056 UTC
Wind: from the SSW (210 degrees) at 10 MPH (9 KT):0
Visibility: 10 mile(s):0
Sky conditions: clear
Temperature: 87.1 F (30.6 C)
Heat index: 98.8 F (37.1 C):1
Dew Point: 77.0 F (25.0 C)
Relative Humidity: 72%
Pressure (altimeter): 29.86 in. Hg (1011 hPa)
ob: KMKT 290056Z AUTO 21009KT 10SM CLR 31/25 A2986 RMK AO2 SLP104 T03060250
cycle: 1

Station Type Date Time Source
KMKT TAF 2021/07/28 23:51 UTC NOAA

TAF
AMD KMKT 282250Z 2823/2918 22012G19KT P6SM SCT120 SCT250
FM290400 26007KT P6SM SCT080 BKN150
FM290700 32006KT P6SM SCT200
FM291500 02009KT P6SM FEW200

Example: see airport list